sensor_id;sensor_type;location;lat;lon;timestamp;pressure;altitude;pressure_sealevel;temperature;humidity
35121;BME280;21297;52.008;4.576;2023-11-19T00:02:05;54336.38;;;-143.47;100.00
35121;BME280;21297;52.008;4.576;2023-11-19T00:05:52;54336.38;;;-143.47;100.00
35121;BME280;21297;52.008;4.576;2023-11-19T00:09:36;54336.38;;;-143.47;100.00
35121;BME280;21297;52.008;4.576;2023-11-19T00:13:19;54336.38;;;-143.47;100.00
35121;BME280;21297;52.008;4.576;2023-11-19T00:17:03;54336.38;;;-143.47;100.00
35121;BME280;21297;52.008;4.576;2023-11-19T00:20:29;42640.56;;;-143.47;100.00
35121;BME280;21297;52.008;4.576;2023-11-19T00:23:25;42640.56;;;-143.47;100.00
35121;BME280;21297;52.008;4.576;2023-11-19T00:26:18;42640.56;;;-143.47;100.00
35121;BME280;21297;52.008;4.576;2023-11-19T00:29:45;42640.56;;;-143.47;100.00
35121;BME280;21297;52.008;4.576;2023-11-19T00:33:26;54336.38;;;-143.47;100.00
35121;BME280;21297;52.008;4.576;2023-11-19T00:37:10;54336.38;;;-143.47;100.00
35121;BME280;21297;52.008;4.576;2023-11-19T00:40:54;54336.38;;;-143.47;100.00
35121;BME280;21297;52.008;4.576;2023-11-19T00:44:38;54336.38;;;-143.47;100.00
35121;BME280;21297;52.008;4.576;2023-11-19T00:48:19;54336.38;;;-143.47;100.00
35121;BME280;21297;52.008;4.576;2023-11-19T00:51:08;42640.56;;;-143.47;100.00
35121;BME280;21297;52.008;4.576;2023-11-19T00:54:52;54336.38;;;-143.47;100.00
35121;BME280;21297;52.008;4.576;2023-11-19T00:57:37;42640.31;;;-143.47;100.00
35121;BME280;21297;52.008;4.576;2023-11-19T01:01:21;54336.38;;;-143.47;100.00
35121;BME280;21297;52.008;4.576;2023-11-19T01:04:07;42640.19;;;-143.47;100.00
35121;BME280;21297;52.008;4.576;2023-11-19T01:06:53;42640.44;;;-143.47;100.00
35121;BME280;21297;52.008;4.576;2023-11-19T01:09:42;42640.31;;;-143.47;100.00
35121;BME280;21297;52.008;4.576;2023-11-19T01:13:26;54336.38;;;-143.47;100.00
35121;BME280;21297;52.008;4.576;2023-11-19T01:17:10;54336.38;;;-143.47;100.00
35121;BME280;21297;52.008;4.576;2023-11-19T01:20:54;54336.38;;;-143.47;100.00
35121;BME280;21297;52.008;4.576;2023-11-19T01:24:39;54336.38;;;-143.47;100.00
35121;BME280;21297;52.008;4.576;2023-11-19T01:28:23;54336.38;;;-143.47;100.00
35121;BME280;21297;52.008;4.576;2023-11-19T01:32:07;54336.38;;;-143.47;100.00
35121;BME280;21297;52.008;4.576;2023-11-19T01:35:51;54336.38;;;-143.47;100.00
35121;BME280;21297;52.008;4.576;2023-11-19T01:38:57;42640.31;;;-143.47;100.00
35121;BME280;21297;52.008;4.576;2023-11-19T01:42:42;54336.38;;;-143.47;100.00
35121;BME280;21297;52.008;4.576;2023-11-19T01:45:43;42640.31;;;-143.47;100.00
35121;BME280;21297;52.008;4.576;2023-11-19T01:49:28;54336.38;;;-143.47;100.00
35121;BME280;21297;52.008;4.576;2023-11-19T01:53:12;54336.38;;;-143.47;100.00
35121;BME280;21297;52.008;4.576;2023-11-19T01:55:58;42640.56;;;-143.47;99.15
35121;BME280;21297;52.008;4.576;2023-11-19T01:58:45;42640.56;;;-143.47;98.95
35121;BME280;21297;52.008;4.576;2023-11-19T02:01:31;42640.78;;;-143.47;99.83
35121;BME280;21297;52.008;4.576;2023-11-19T02:05:18;54336.38;;;-143.47;100.00
35121;BME280;21297;52.008;4.576;2023-11-19T02:08:04;42640.91;;;-143.47;98.68
35121;BME280;21297;52.008;4.576;2023-11-19T02:11:48;54336.38;;;-143.47;100.00
35121;BME280;21297;52.008;4.576;2023-11-19T02:15:35;54336.38;;;-143.47;100.00
35121;BME280;21297;52.008;4.576;2023-11-19T02:19:20;54336.38;;;-143.47;100.00
35121;BME280;21297;52.008;4.576;2023-11-19T02:23:04;54336.38;;;-143.47;100.00
35121;BME280;21297;52.008;4.576;2023-11-19T02:27:10;54336.38;;;-143.47;100.00
35121;BME280;21297;52.008;4.576;2023-11-19T02:30:58;54336.38;;;-143.47;100.00
35121;BME280;21297;52.008;4.576;2023-11-19T02:34:43;54336.38;;;-143.47;100.00
35121;BME280;21297;52.008;4.576;2023-11-19T02:37:29;42640.91;;;-143.47;98.68
35121;BME280;21297;52.008;4.576;2023-11-19T02:40:15;42640.78;;;-143.47;98.34
35121;BME280;21297;52.008;4.576;2023-11-19T02:43:06;42640.78;;;-143.47;100.00
35121;BME280;21297;52.008;4.576;2023-11-19T02:45:53;42640.69;;;-143.47;99.70
35121;BME280;21297;52.008;4.576;2023-11-19T02:49:00;54336.38;;;-143.47;100.00
35121;BME280;21297;52.008;4.576;2023-11-19T02:51:46;54336.38;;;-143.47;100.00
35121;BME280;21297;52.008;4.576;2023-11-19T02:54:32;42640.91;;;-143.47;100.00
35121;BME280;21297;52.008;4.576;2023-11-19T02:57:20;42640.78;;;-143.47;100.00
35121;BME280;21297;52.008;4.576;2023-11-19T03:00:06;42640.91;;;-143.47;100.00
35121;BME280;21297;52.008;4.576;2023-11-19T03:04:00;54336.38;;;-143.47;100.00
35121;BME280;21297;52.008;4.576;2023-11-19T03:07:45;54336.38;;;-143.47;100.00
35121;BME280;21297;52.008;4.576;2023-11-19T03:10:31;42640.91;;;-143.47;98.96
35121;BME280;21297;52.008;4.576;2023-11-19T03:14:15;54336.38;;;-143.47;100.00
35121;BME280;21297;52.008;4.576;2023-11-19T03:17:59;54336.38;;;-143.47;100.00
35121;BME280;21297;52.008;4.576;2023-11-19T03:21:44;54336.38;;;-143.47;100.00
35121;BME280;21297;52.008;4.576;2023-11-19T03:25:28;54336.38;;;-143.47;100.00
35121;BME280;21297;52.008;4.576;2023-11-19T03:28:19;42641.03;;;-143.47;94.33
35121;BME280;21297;52.008;4.576;2023-11-19T03:32:04;54336.38;;;-143.47;100.00
35121;BME280;21297;52.008;4.576;2023-11-19T03:35:48;54336.38;;;-143.47;100.00
35121;BME280;21297;52.008;4.576;2023-11-19T03:39:32;54336.38;;;-143.47;100.00
35121;BME280;21297;52.008;4.576;2023-11-19T03:43:17;54336.38;;;-143.47;100.00
35121;BME280;21297;52.008;4.576;2023-11-19T03:47:03;54336.38;;;-143.47;100.00
35121;BME280;21297;52.008;4.576;2023-11-19T03:50:47;54336.38;;;-143.47;100.00
35121;BME280;21297;52.008;4.576;2023-11-19T03:53:35;42640.91;;;-143.47;96.49
35121;BME280;21297;52.008;4.576;2023-11-19T03:57:19;54336.38;;;-143.47;100.00
35121;BME280;21297;52.008;4.576;2023-11-19T04:01:04;54336.38;;;-143.47;100.00
35121;BME280;21297;52.008;4.576;2023-11-19T04:04:26;42640.91;;;-143.47;96.49
35121;BME280;21297;52.008;4.576;2023-11-19T04:08:11;54336.38;;;-143.47;100.00
35121;BME280;21297;52.008;4.576;2023-11-19T04:11:55;54336.38;;;-143.47;100.00
35121;BME280;21297;52.008;4.576;2023-11-19T04:15:39;54336.38;;;-143.47;100.00
35121;BME280;21297;52.008;4.576;2023-11-19T04:19:23;54336.38;;;-143.47;100.00
35121;BME280;21297;52.008;4.576;2023-11-19T04:23:08;54336.38;;;-143.47;100.00
35121;BME280;21297;52.008;4.576;2023-11-19T04:26:40;42640.91;;;-143.47;96.49
35121;BME280;21297;52.008;4.576;2023-11-19T04:29:59;42640.91;;;-143.47;96.49
35121;BME280;21297;52.008;4.576;2023-11-19T04:33:45;54336.38;;;-143.47;100.00
35121;BME280;21297;52.008;4.576;2023-11-19T04:37:30;54336.38;;;-143.47;100.00
35121;BME280;21297;52.008;4.576;2023-11-19T04:41:14;54336.38;;;-143.47;100.00
35121;BME280;21297;52.008;4.576;2023-11-19T04:44:58;54336.38;;;-143.47;100.00
35121;BME280;21297;52.008;4.576;2023-11-19T04:48:42;54336.38;;;-143.47;100.00
35121;BME280;21297;52.008;4.576;2023-11-19T04:52:26;54336.38;;;-143.47;100.00
35121;BME280;21297;52.008;4.576;2023-11-19T04:56:11;54336.38;;;-143.47;100.00
35121;BME280;21297;52.008;4.576;2023-11-19T04:59:55;54336.38;;;-143.47;100.00
35121;BME280;21297;52.008;4.576;2023-11-19T05:03:40;54336.38;;;-143.47;100.00
35121;BME280;21297;52.008;4.576;2023-11-19T05:07:11;42640.91;;;-143.47;96.49
35121;BME280;21297;52.008;4.576;2023-11-19T05:14:25;54336.38;;;-143.47;100.00
35121;BME280;21297;52.008;4.576;2023-11-19T05:18:09;54336.38;;;-143.47;100.00
35121;BME280;21297;52.008;4.576;2023-11-19T05:21:53;54336.38;;;-143.47;100.00
35121;BME280;21297;52.008;4.576;2023-11-19T05:25:37;54336.38;;;-143.47;100.00
35121;BME280;21297;52.008;4.576;2023-11-19T05:28:56;42640.91;;;-143.47;96.49
35121;BME280;21297;52.008;4.576;2023-11-19T05:31:42;42640.78;;;-143.47;90.31
35121;BME280;21297;52.008;4.576;2023-11-19T05:34:27;42640.91;;;-143.47;91.08
35121;BME280;21297;52.008;4.576;2023-11-19T05:38:11;54336.38;;;-143.47;100.00
35121;BME280;21297;52.008;4.576;2023-11-19T05:41:55;54336.38;;;-143.47;100.00
35121;BME280;21297;52.008;4.576;2023-11-19T05:45:40;54336.38;;;-143.47;100.00
35121;BME280;21297;52.008;4.576;2023-11-19T05:49:24;54336.38;;;-143.47;100.00
35121;BME280;21297;52.008;4.576;2023-11-19T05:53:08;54336.38;;;-143.47;100.00
35121;BME280;21297;52.008;4.576;2023-11-19T05:56:15;42640.91;;;-143.47;91.08
35121;BME280;21297;52.008;4.576;2023-11-19T06:00:04;54336.38;;;-143.47;100.00
35121;BME280;21297;52.008;4.576;2023-11-19T06:03:52;54336.38;;;-143.47;100.00
35121;BME280;21297;52.008;4.576;2023-11-19T06:06:51;42640.91;;;-143.47;91.08
35121;BME280;21297;52.008;4.576;2023-11-19T06:10:35;54336.38;;;-143.47;100.00
35121;BME280;21297;52.008;4.576;2023-11-19T06:14:20;54336.38;;;-143.47;100.00
35121;BME280;21297;52.008;4.576;2023-11-19T06:18:04;54336.38;;;-143.47;100.00
35121;BME280;21297;52.008;4.576;2023-11-19T06:21:49;54336.38;;;-143.47;100.00
35121;BME280;21297;52.008;4.576;2023-11-19T06:25:33;54336.38;;;-143.47;100.00
35121;BME280;21297;52.008;4.576;2023-11-19T06:28:25;42640.91;;;-143.47;91.08
35121;BME280;21297;52.008;4.576;2023-11-19T06:32:09;54336.38;;;-143.47;100.00
35121;BME280;21297;52.008;4.576;2023-11-19T06:34:54;42641.03;;;-143.47;85.73
35121;BME280;21297;52.008;4.576;2023-11-19T06:37:40;42641.28;;;-143.47;85.63
35121;BME280;21297;52.008;4.576;2023-11-19T06:40:26;42640.91;;;-143.47;86.46
35121;BME280;21297;52.008;4.576;2023-11-19T06:43:38;42640.91;;;-143.47;86.46
35121;BME280;21297;52.008;4.576;2023-11-19T06:46:31;42640.91;;;-143.47;86.46
35121;BME280;21297;52.008;4.576;2023-11-19T06:49:17;42641.03;;;-143.47;87.07
35121;BME280;21297;52.008;4.576;2023-11-19T06:52:21;42641.03;;;-143.47;87.07
35121;BME280;21297;52.008;4.576;2023-11-19T06:56:16;54336.38;;;-143.47;100.00
35121;BME280;21297;52.008;4.576;2023-11-19T07:00:00;54336.38;;;-143.47;100.00
35121;BME280;21297;52.008;4.576;2023-11-19T07:02:46;42641.16;;;-143.47;85.58
35121;BME280;21297;52.008;4.576;2023-11-19T07:05:32;42641.41;;;-143.47;86.56
35121;BME280;21297;52.008;4.576;2023-11-19T07:08:18;42641.28;;;-143.47;88.08
35121;BME280;21297;52.008;4.576;2023-11-19T07:11:04;42641.41;;;-143.47;88.31
35121;BME280;21297;52.008;4.576;2023-11-19T07:14:48;54336.38;;;-143.47;100.00
35121;BME280;21297;52.008;4.576;2023-11-19T07:18:32;54336.38;;;-143.47;100.00
35121;BME280;21297;52.008;4.576;2023-11-19T07:22:10;42641.22;;;-143.47;88.31
35121;BME280;21297;52.008;4.576;2023-11-19T07:25:44;42641.22;;;-143.47;88.31
35121;BME280;21297;52.008;4.576;2023-11-19T07:28:47;42641.41;;;-143.47;88.31
35121;BME280;21297;52.008;4.576;2023-11-19T07:32:05;42641.41;;;-143.47;88.31
35121;BME280;21297;52.008;4.576;2023-11-19T07:34:50;42641.53;;;-143.47;85.61
35121;BME280;21297;52.008;4.576;2023-11-19T07:37:36;42641.66;;;-143.47;85.97
35121;BME280;21297;52.008;4.576;2023-11-19T07:40:22;42641.41;;;-143.47;86.33
35121;BME280;21297;52.008;4.576;2023-11-19T07:43:07;42641.28;;;-143.47;86.27
35121;BME280;21297;52.008;4.576;2023-11-19T07:45:53;42641.03;;;-143.47;86.21
35121;BME280;21297;52.008;4.576;2023-11-19T07:48:42;42641.03;;;-143.47;86.21
35121;BME280;21297;52.008;4.576;2023-11-19T07:51:28;42641.03;;;-143.47;84.63
35121;BME280;21297;52.008;4.576;2023-11-19T07:54:26;42641.03;;;-143.47;84.63
35121;BME280;21297;52.008;4.576;2023-11-19T07:57:30;42641.03;;;-143.47;84.63
35121;BME280;21297;52.008;4.576;2023-11-19T08:00:55;42641.03;;;-143.47;84.63
35121;BME280;21297;52.008;4.576;2023-11-19T08:04:39;54336.38;;;-143.47;100.00
35121;BME280;21297;52.008;4.576;2023-11-19T08:08:26;54336.38;;;-143.47;100.00
35121;BME280;21297;52.008;4.576;2023-11-19T08:12:10;54336.38;;;-143.47;100.00
35121;BME280;21297;52.008;4.576;2023-11-19T08:15:54;54336.38;;;-143.47;100.00
35121;BME280;21297;52.008;4.576;2023-11-19T08:19:42;54336.38;;;-143.47;100.00
35121;BME280;21297;52.008;4.576;2023-11-19T08:23:26;54336.38;;;-143.47;100.00
35121;BME280;21297;52.008;4.576;2023-11-19T08:26:11;42641.03;;;-143.47;80.76
35121;BME280;21297;52.008;4.576;2023-11-19T08:28:57;42640.91;;;-143.47;81.05
35121;BME280;21297;52.008;4.576;2023-11-19T08:31:43;42640.91;;;-143.47;80.99
35121;BME280;21297;52.008;4.576;2023-11-19T08:34:29;42641.03;;;-143.47;80.54
35121;BME280;21297;52.008;4.576;2023-11-19T08:37:14;42640.91;;;-143.47;80.60
35121;BME280;21297;52.008;4.576;2023-11-19T08:40:00;42640.69;;;-143.47;80.07
35121;BME280;21297;52.008;4.576;2023-11-19T08:43:45;54336.38;;;-143.47;100.00
35121;BME280;21297;52.008;4.576;2023-11-19T08:47:29;54336.38;;;-143.47;100.00
35121;BME280;21297;52.008;4.576;2023-11-19T08:51:13;54336.38;;;-143.47;100.00
35121;BME280;21297;52.008;4.576;2023-11-19T08:53:59;42640.69;;;-143.47;80.07
35121;BME280;21297;52.008;4.576;2023-11-19T08:56:45;42640.56;;;-143.47;78.97
35121;BME280;21297;52.008;4.576;2023-11-19T08:59:31;42640.69;;;-143.47;79.84
35121;BME280;21297;52.008;4.576;2023-11-19T09:02:16;42640.56;;;-143.47;79.27
35121;BME280;21297;52.008;4.576;2023-11-19T09:05:04;42640.91;;;-143.47;78.98
35121;BME280;21297;52.008;4.576;2023-11-19T09:07:50;42641.03;;;-143.47;78.85
35121;BME280;21297;52.008;4.576;2023-11-19T09:11:35;54336.38;;;-143.47;100.00
35121;BME280;21297;52.008;4.576;2023-11-19T09:14:20;42641.16;;;-143.47;77.50
35121;BME280;21297;52.008;4.576;2023-11-19T09:17:11;42641.03;;;-143.47;78.40
35121;BME280;21297;52.008;4.576;2023-11-19T09:19:56;42641.16;;;-143.47;78.11
35121;BME280;21297;52.008;4.576;2023-11-19T09:23:37;54336.38;;;-143.47;78.11
35121;BME280;21297;52.008;4.576;2023-11-19T09:26:24;42641.16;;;-143.47;77.80
35121;BME280;21297;52.008;4.576;2023-11-19T09:29:10;42641.16;;;-143.47;77.57
35121;BME280;21297;52.008;4.576;2023-11-19T09:32:55;54336.38;;;-143.47;100.00
35121;BME280;21297;52.008;4.576;2023-11-19T09:36:36;54336.38;;;-143.47;100.00
35121;BME280;21297;52.008;4.576;2023-11-19T09:40:01;42641.16;;;-143.47;77.57
35121;BME280;21297;52.008;4.576;2023-11-19T09:42:47;42641.16;;;-143.47;75.76
35121;BME280;21297;52.008;4.576;2023-11-19T09:45:45;42641.03;;;-143.47;74.25
35121;BME280;21297;52.008;4.576;2023-11-19T09:48:34;42641.28;;;-143.47;73.80
35121;BME280;21297;52.008;4.576;2023-11-19T09:51:20;42641.03;;;-143.47;72.11
35121;BME280;21297;52.008;4.576;2023-11-19T09:54:07;42641.16;;;-143.47;71.05
35121;BME280;21297;52.008;4.576;2023-11-19T09:57:51;54336.38;;;-143.47;100.00
35121;BME280;21297;52.008;4.576;2023-11-19T10:01:37;54336.38;;;-143.47;100.00
35121;BME280;21297;52.008;4.576;2023-11-19T10:04:41;42641.16;;;-143.47;71.05
35121;BME280;21297;52.008;4.576;2023-11-19T10:07:27;42641.28;;;-143.47;69.98
35121;BME280;21297;52.008;4.576;2023-11-19T10:10:14;42641.28;;;-143.47;69.98
35121;BME280;21297;52.008;4.576;2023-11-19T10:13:59;54336.38;;;-143.47;nan
35121;BME280;21297;52.008;4.576;2023-11-19T10:16:47;42641.28;;;-143.47;69.98
35121;BME280;21297;52.008;4.576;2023-11-19T10:19:34;42641.28;;;-143.47;69.98
35121;BME280;21297;52.008;4.576;2023-11-19T10:23:05;42641.28;;;-143.47;69.98
35121;BME280;21297;52.008;4.576;2023-11-19T10:25:53;42641.16;;;-143.47;66.83
35121;BME280;21297;52.008;4.576;2023-11-19T10:28:39;42641.03;;;-143.47;67.31
35121;BME280;21297;52.008;4.576;2023-11-19T10:31:31;42641.28;;;-143.47;67.71
35121;BME280;21297;52.008;4.576;2023-11-19T10:34:25;42641.66;;;-143.47;67.72
35121;BME280;21297;52.008;4.576;2023-11-19T10:37:27;42641.66;;;-143.47;67.46
35121;BME280;21297;52.008;4.576;2023-11-19T10:40:15;42641.78;;;-143.47;66.88
35121;BME280;21297;52.008;4.576;2023-11-19T10:43:04;42641.78;;;-143.47;67.14
35121;BME280;21297;52.008;4.576;2023-11-19T10:45:50;42642.03;;;-143.47;66.98
35121;BME280;21297;52.008;4.576;2023-11-19T10:49:33;54336.38;;;-143.47;100.00
35121;BME280;21297;52.008;4.576;2023-11-19T10:53:19;54336.38;;;-143.47;100.00
35121;BME280;21297;52.008;4.576;2023-11-19T10:56:10;42641.78;;;-143.47;67.01
35121;BME280;21297;52.008;4.576;2023-11-19T10:58:56;42642.03;;;-143.47;68.47
35121;BME280;21297;52.008;4.576;2023-11-19T11:01:45;42642.28;;;-143.47;70.23
35121;BME280;21297;52.008;4.576;2023-11-19T11:04:33;42642.28;;;-143.47;71.57
35121;BME280;21297;52.008;4.576;2023-11-19T11:07:22;42642.28;;;-143.47;70.89
35121;BME280;21297;52.008;4.576;2023-11-19T11:10:32;54400.72;;;-143.47;100.00
35121;BME280;21297;52.008;4.576;2023-11-19T11:14:23;54336.38;;;-143.47;100.00
35121;BME280;21297;52.008;4.576;2023-11-19T11:17:11;42641.91;;;-143.47;73.72
35121;BME280;21297;52.008;4.576;2023-11-19T11:19:58;42642.03;;;-143.47;75.27
35121;BME280;21297;52.008;4.576;2023-11-19T11:22:57;42642.03;;;-143.47;75.90
35121;BME280;21297;52.008;4.576;2023-11-19T11:36:21;42642.41;;;-143.47;73.15
35121;BME280;21297;52.008;4.576;2023-11-19T11:39:07;42642.41;;;-143.47;72.75
35121;BME280;21297;52.008;4.576;2023-11-19T11:45:16;42642.41;;;-143.47;72.44
35121;BME280;21297;52.008;4.576;2023-11-19T11:48:08;42642.50;;;-143.47;71.33
35121;BME280;21297;52.008;4.576;2023-11-19T11:50:57;42642.28;;;-143.47;70.14
35121;BME280;21297;52.008;4.576;2023-11-19T11:53:47;42642.16;;;-143.47;69.60
35121;BME280;21297;52.008;4.576;2023-11-19T11:56:33;42642.03;;;-143.47;68.46
35121;BME280;21297;52.008;4.576;2023-11-19T11:59:23;42642.28;;;-143.47;67.88
35121;BME280;21297;52.008;4.576;2023-11-19T12:02:10;42642.28;;;-143.47;66.50
35121;BME280;21297;52.008;4.576;2023-11-19T12:04:56;42642.28;;;-143.47;64.36
35121;BME280;21297;52.008;4.576;2023-11-19T12:08:03;42642.28;;;-143.47;64.14
35121;BME280;21297;52.008;4.576;2023-11-19T12:10:55;42642.28;;;-143.47;64.14
35121;BME280;21297;52.008;4.576;2023-11-19T12:14:09;42642.28;;;-143.47;64.14
35121;BME280;21297;52.008;4.576;2023-11-19T12:17:32;42642.28;;;-143.47;64.14
35121;BME280;21297;52.008;4.576;2023-11-19T12:20:18;42642.41;;;-143.47;65.72
35121;BME280;21297;52.008;4.576;2023-11-19T12:23:04;42642.41;;;-143.47;67.50
35121;BME280;21297;52.008;4.576;2023-11-19T12:25:50;42642.16;;;-143.47;68.07
35121;BME280;21297;52.008;4.576;2023-11-19T12:28:36;42642.03;;;-143.47;68.41
35121;BME280;21297;52.008;4.576;2023-11-19T12:31:21;42642.03;;;-143.47;68.71
35121;BME280;21297;52.008;4.576;2023-11-19T12:34:08;42642.28;;;-143.47;69.15
35121;BME280;21297;52.008;4.576;2023-11-19T12:36:57;42642.03;;;-143.47;69.30
35121;BME280;21297;52.008;4.576;2023-11-19T12:39:43;54336.38;;;-143.47;100.00
35121;BME280;21297;52.008;4.576;2023-11-19T12:42:36;42642.16;;;-143.47;70.82
35121;BME280;21297;52.008;4.576;2023-11-19T12:45:23;42642.03;;;-143.47;71.71
35121;BME280;21297;52.008;4.576;2023-11-19T12:48:11;42641.91;;;-143.47;72.53
35121;BME280;21297;52.008;4.576;2023-11-19T12:50:58;42641.78;;;-143.47;71.22
35121;BME280;21297;52.008;4.576;2023-11-19T12:53:51;42641.66;;;-143.47;71.36
35121;BME280;21297;52.008;4.576;2023-11-19T12:56:53;42641.53;;;-143.47;70.99
35121;BME280;21297;52.008;4.576;2023-11-19T12:59:39;42641.66;;;-143.47;70.28
35121;BME280;21297;52.008;4.576;2023-11-19T13:03:43;54336.38;;;-143.47;100.00
35121;BME280;21297;52.008;4.576;2023-11-19T13:07:27;54336.38;;;-143.47;100.00
35121;BME280;21297;52.008;4.576;2023-11-19T13:11:12;54336.38;;;-143.47;100.00
35121;BME280;21297;52.008;4.576;2023-11-19T13:14:50;54336.38;;;-143.47;70.28
35121;BME280;21297;52.008;4.576;2023-11-19T13:17:36;42641.53;;;-143.47;74.15
35121;BME280;21297;52.008;4.576;2023-11-19T13:20:22;42641.53;;;-143.47;76.13
35121;BME280;21297;52.008;4.576;2023-11-19T13:23:08;42641.41;;;-143.47;77.22
35121;BME280;21297;52.008;4.576;2023-11-19T13:26:45;54336.38;;;-143.47;77.22
35121;BME280;21297;52.008;4.576;2023-11-19T13:29:48;42641.41;;;-143.47;77.22
35121;BME280;21297;52.008;4.576;2023-11-19T13:33:12;42641.41;;;-143.47;77.22
35121;BME280;21297;52.008;4.576;2023-11-19T13:35:58;42641.41;;;-143.47;78.76
35121;BME280;21297;52.008;4.576;2023-11-19T13:38:45;42641.41;;;-143.47;79.07
35121;BME280;21297;52.008;4.576;2023-11-19T13:41:30;42641.78;;;-143.47;77.21
35121;BME280;21297;52.008;4.576;2023-11-19T13:44:24;54336.38;;;-143.47;100.00
35121;BME280;21297;52.008;4.576;2023-11-19T13:47:09;42641.91;;;-143.47;74.73
35121;BME280;21297;52.008;4.576;2023-11-19T13:49:55;42641.91;;;-143.47;74.29
35121;BME280;21297;52.008;4.576;2023-11-19T13:52:42;42641.91;;;-143.47;72.73
35121;BME280;21297;52.008;4.576;2023-11-19T13:55:28;42641.91;;;-143.47;72.52
35121;BME280;21297;52.008;4.576;2023-11-19T13:58:14;42641.91;;;-143.47;72.06
35121;BME280;21297;52.008;4.576;2023-11-19T14:00:59;42641.66;;;-143.47;72.13
35121;BME280;21297;52.008;4.576;2023-11-19T14:03:45;42641.66;;;-143.47;72.75
35121;BME280;21297;52.008;4.576;2023-11-19T14:06:31;42641.66;;;-143.47;73.00
35121;BME280;21297;52.008;4.576;2023-11-19T14:09:17;42641.66;;;-143.47;72.87
35121;BME280;21297;52.008;4.576;2023-11-19T14:12:03;42641.78;;;-143.47;73.24
35121;BME280;21297;52.008;4.576;2023-11-19T14:14:50;42641.78;;;-143.47;74.12
35121;BME280;21297;52.008;4.576;2023-11-19T14:18:34;54336.38;;;-143.47;100.00
35121;BME280;21297;52.008;4.576;2023-11-19T14:21:20;42641.66;;;-143.47;73.62
35121;BME280;21297;52.008;4.576;2023-11-19T14:24:06;42641.78;;;-143.47;76.10
35121;BME280;21297;52.008;4.576;2023-11-19T14:27:50;54336.38;;;-143.47;100.00
35121;BME280;21297;52.008;4.576;2023-11-19T14:31:34;54336.38;;;-143.47;100.00
35121;BME280;21297;52.008;4.576;2023-11-19T14:35:19;54336.38;;;-143.47;100.00
35121;BME280;21297;52.008;4.576;2023-11-19T14:39:04;54336.38;;;-143.47;100.00
35121;BME280;21297;52.008;4.576;2023-11-19T14:42:05;42641.78;;;-143.47;76.10
35121;BME280;21297;52.008;4.576;2023-11-19T14:44:52;42641.53;;;-143.47;71.24
35121;BME280;21297;52.008;4.576;2023-11-19T14:47:44;42641.66;;;-143.47;71.06
35121;BME280;21297;52.008;4.576;2023-11-19T14:50:29;42642.16;;;-143.47;71.69
35121;BME280;21297;52.008;4.576;2023-11-19T14:53:15;42642.28;;;-143.47;71.74
35121;BME280;21297;52.008;4.576;2023-11-19T14:56:01;42642.28;;;-143.47;73.34
35121;BME280;21297;52.008;4.576;2023-11-19T14:58:47;42642.28;;;-143.47;73.99
35121;BME280;21297;52.008;4.576;2023-11-19T15:01:36;42642.03;;;-143.47;74.55
35121;BME280;21297;52.008;4.576;2023-11-19T15:04:21;42641.78;;;-143.47;76.06
35121;BME280;21297;52.008;4.576;2023-11-19T15:07:07;42641.66;;;-143.47;77.25
35121;BME280;21297;52.008;4.576;2023-11-19T15:09:52;42641.66;;;-143.47;78.32
35121;BME280;21297;52.008;4.576;2023-11-19T15:12:58;54336.38;;;-143.47;100.00
35121;BME280;21297;52.008;4.576;2023-11-19T15:15:43;42641.66;;;-143.47;78.32
35121;BME280;21297;52.008;4.576;2023-11-19T15:18:29;42641.66;;;-143.47;80.45
35121;BME280;21297;52.008;4.576;2023-11-19T15:21:15;42641.66;;;-143.47;81.47
35121;BME280;21297;52.008;4.576;2023-11-19T15:24:01;42641.66;;;-143.47;81.91
35121;BME280;21297;52.008;4.576;2023-11-19T15:26:50;42641.53;;;-143.47;82.25
35121;BME280;21297;52.008;4.576;2023-11-19T15:29:35;42641.41;;;-143.47;82.25
35121;BME280;21297;52.008;4.576;2023-11-19T15:32:21;42641.41;;;-143.47;82.19
35121;BME280;21297;52.008;4.576;2023-11-19T15:35:07;42641.28;;;-143.47;82.04
35121;BME280;21297;52.008;4.576;2023-11-19T15:37:52;42641.28;;;-143.47;81.99
35121;BME280;21297;52.008;4.576;2023-11-19T15:40:38;42641.41;;;-143.47;82.30
35121;BME280;21297;52.008;4.576;2023-11-19T15:43:24;42641.03;;;-143.47;82.17
35121;BME280;21297;52.008;4.576;2023-11-19T15:46:10;42641.03;;;-143.47;81.93
35121;BME280;21297;52.008;4.576;2023-11-19T15:48:56;42641.03;;;-143.47;84.56
35121;BME280;21297;52.008;4.576;2023-11-19T15:51:42;42641.16;;;-143.47;88.07
35121;BME280;21297;52.008;4.576;2023-11-19T15:54:27;42641.16;;;-143.47;91.49
35121;BME280;21297;52.008;4.576;2023-11-19T15:57:13;42641.41;;;-143.47;92.70
35121;BME280;21297;52.008;4.576;2023-11-19T15:59:59;42641.53;;;-143.47;93.13
35121;BME280;21297;52.008;4.576;2023-11-19T16:02:44;42641.53;;;-143.47;94.76
35121;BME280;21297;52.008;4.576;2023-11-19T16:05:30;42641.28;;;-143.47;95.49
35121;BME280;21297;52.008;4.576;2023-11-19T16:08:15;42641.28;;;-143.47;95.79
35121;BME280;21297;52.008;4.576;2023-11-19T16:11:01;42641.16;;;-143.47;95.84
35121;BME280;21297;52.008;4.576;2023-11-19T16:13:47;42641.16;;;-143.47;98.28
35121;BME280;21297;52.008;4.576;2023-11-19T16:16:32;42641.16;;;-143.47;100.00
35121;BME280;21297;52.008;4.576;2023-11-19T16:19:18;42641.16;;;-143.47;100.00
35121;BME280;21297;52.008;4.576;2023-11-19T16:22:04;42641.03;;;-143.47;100.00
35121;BME280;21297;52.008;4.576;2023-11-19T16:24:55;42641.28;;;-143.47;100.00
35121;BME280;21297;52.008;4.576;2023-11-19T16:27:40;42641.16;;;-143.47;100.00
35121;BME280;21297;52.008;4.576;2023-11-19T16:30:26;42641.03;;;-143.47;100.00
35121;BME280;21297;52.008;4.576;2023-11-19T16:33:12;42641.03;;;-143.47;100.00